sensor_id;sensor_type;location;lat;lon;timestamp;noise_LAeq;noise_LA_min;noise_LA_max;noise_LA01;noise_LA95
67302;Laerm;57659;51.436;5.978;2023-04-19T00:00:10;31.86;28.67;38.73;;
67302;Laerm;57659;51.436;5.978;2023-04-19T00:00:21;31.36;28.62;39.19;;
67302;Laerm;57659;51.436;5.978;2023-04-19T00:00:31;31.50;28.48;39.18;;
67302;Laerm;57659;51.436;5.978;2023-04-19T00:00:42;31.29;28.48;38.86;;
67302;Laerm;57659;51.436;5.978;2023-04-19T00:00:52;31.22;28.20;38.53;;
67302;Laerm;57659;51.436;5.978;2023-04-19T00:01:02;31.48;28.32;39.38;;
67302;Laerm;57659;51.436;5.978;2023-04-19T00:01:13;31.59;28.62;39.16;;
67302;Laerm;57659;51.436;5.978;2023-04-19T00:01:23;33.98;28.53;47.33;;
67302;Laerm;57659;51.436;5.978;2023-04-19T00:01:34;31.38;28.52;39.06;;
67302;Laerm;57659;51.436;5.978;2023-04-19T00:01:44;31.51;28.64;39.44;;
67302;Laerm;57659;51.436;5.978;2023-04-19T00:01:55;31.58;28.51;39.32;;
67302;Laerm;57659;51.436;5.978;2023-04-19T00:02:05;31.55;28.64;39.25;;
67302;Laerm;57659;51.436;5.978;2023-04-19T00:02:15;31.33;28.59;38.17;;
67302;Laerm;57659;51.436;5.978;2023-04-19T00:02:27;40.20;28.86;47.74;;
67302;Laerm;57659;51.436;5.978;2023-04-19T00:02:37;41.54;35.58;46.93;;
67302;Laerm;57659;51.436;5.978;2023-04-19T00:02:48;41.89;37.09;46.29;;
67302;Laerm;57659;51.436;5.978;2023-04-19T00:02:58;33.35;29.29;40.82;;
67302;Laerm;57659;51.436;5.978;2023-04-19T00:03:09;31.38;28.56;38.89;;
67302;Laerm;57659;51.436;5.978;2023-04-19T00:03:20;31.60;28.22;39.29;;
67302;Laerm;57659;51.436;5.978;2023-04-19T00:03:33;31.05;28.37;39.14;;
67302;Laerm;57659;51.436;5.978;2023-04-19T00:03:43;31.05;28.54;38.67;;
67302;Laerm;57659;51.436;5.978;2023-04-19T00:03:54;31.31;28.61;38.80;;
67302;Laerm;57659;51.436;5.978;2023-04-19T00:04:05;31.32;28.17;38.80;;
67302;Laerm;57659;51.436;5.978;2023-04-19T00:04:17;31.07;28.39;38.11;;
67302;Laerm;57659;51.436;5.978;2023-04-19T00:04:29;33.15;28.34;49.83;;
67302;Laerm;57659;51.436;5.978;2023-04-19T00:04:40;47.57;28.45;61.40;;
67302;Laerm;57659;51.436;5.978;2023-04-19T00:04:50;31.66;28.31;39.28;;
67302;Laerm;57659;51.436;5.978;2023-04-19T00:05:02;31.69;28.46;39.54;;
67302;Laerm;57659;51.436;5.978;2023-04-19T00:05:12;31.92;28.45;39.64;;
67302;Laerm;57659;51.436;5.978;2023-04-19T00:05:23;31.81;28.59;39.61;;
67302;Laerm;57659;51.436;5.978;2023-04-19T00:05:33;31.90;28.57;39.73;;
67302;Laerm;57659;51.436;5.978;2023-04-19T00:05:43;31.81;28.49;39.84;;
67302;Laerm;57659;51.436;5.978;2023-04-19T00:05:54;31.95;28.54;39.72;;
67302;Laerm;57659;51.436;5.978;2023-04-19T00:06:07;31.92;28.36;39.50;;
67302;Laerm;57659;51.436;5.978;2023-04-19T00:06:19;31.76;28.51;39.48;;
67302;Laerm;57659;51.436;5.978;2023-04-19T00:06:30;31.95;28.35;39.79;;
67302;Laerm;57659;51.436;5.978;2023-04-19T00:06:40;31.99;28.11;39.44;;
67302;Laerm;57659;51.436;5.978;2023-04-19T00:06:51;31.78;28.20;39.78;;
67302;Laerm;57659;51.436;5.978;2023-04-19T00:07:01;31.77;28.31;39.27;;
67302;Laerm;57659;51.436;5.978;2023-04-19T00:07:12;32.16;28.62;40.53;;
67302;Laerm;57659;51.436;5.978;2023-04-19T00:07:22;32.24;28.31;40.08;;
67302;Laerm;57659;51.436;5.978;2023-04-19T00:07:33;32.20;28.50;39.73;;
67302;Laerm;57659;51.436;5.978;2023-04-19T00:07:43;32.11;28.36;39.84;;
67302;Laerm;57659;51.436;5.978;2023-04-19T00:07:53;32.22;28.50;40.60;;
67302;Laerm;57659;51.436;5.978;2023-04-19T00:08:04;32.49;28.56;40.21;;
67302;Laerm;57659;51.436;5.978;2023-04-19T00:08:15;32.40;28.24;39.92;;
67302;Laerm;57659;51.436;5.978;2023-04-19T00:08:25;31.79;28.46;39.26;;
67302;Laerm;57659;51.436;5.978;2023-04-19T00:08:35;32.22;28.48;40.21;;
67302;Laerm;57659;51.436;5.978;2023-04-19T00:08:45;32.37;28.21;40.34;;
67302;Laerm;57659;51.436;5.978;2023-04-19T00:08:56;32.26;28.49;39.83;;
67302;Laerm;57659;51.436;5.978;2023-04-19T00:09:07;32.10;28.51;39.43;;
67302;Laerm;57659;51.436;5.978;2023-04-19T00:09:17;31.97;28.32;39.72;;
67302;Laerm;57659;51.436;5.978;2023-04-19T00:09:27;32.27;28.55;39.94;;
67302;Laerm;57659;51.436;5.978;2023-04-19T00:09:38;32.29;28.43;39.89;;
67302;Laerm;57659;51.436;5.978;2023-04-19T00:09:48;32.11;28.23;39.52;;
67302;Laerm;57659;51.436;5.978;2023-04-19T00:09:58;32.12;28.33;39.92;;
67302;Laerm;57659;51.436;5.978;2023-04-19T00:10:09;32.38;28.28;40.29;;
67302;Laerm;57659;51.436;5.978;2023-04-19T00:10:19;32.31;27.97;40.41;;
67302;Laerm;57659;51.436;5.978;2023-04-19T00:10:30;31.99;28.47;39.48;;
67302;Laerm;57659;51.436;5.978;2023-04-19T00:10:40;32.29;28.74;39.89;;
67302;Laerm;57659;51.436;5.978;2023-04-19T00:10:50;32.34;28.65;39.95;;
67302;Laerm;57659;51.436;5.978;2023-04-19T00:11:01;32.34;28.17;40.16;;
67302;Laerm;57659;51.436;5.978;2023-04-19T00:11:11;32.43;28.67;40.36;;
67302;Laerm;57659;51.436;5.978;2023-04-19T00:11:22;37.20;29.11;47.81;;
67302;Laerm;57659;51.436;5.978;2023-04-19T00:11:32;42.91;37.77;46.74;;
67302;Laerm;57659;51.436;5.978;2023-04-19T00:11:42;41.71;37.46;46.59;;
67302;Laerm;57659;51.436;5.978;2023-04-19T00:11:53;36.20;28.85;43.32;;
67302;Laerm;57659;51.436;5.978;2023-04-19T00:12:03;35.80;28.49;48.84;;
67302;Laerm;57659;51.436;5.978;2023-04-19T00:12:13;32.55;28.23;40.31;;
67302;Laerm;57659;51.436;5.978;2023-04-19T00:12:23;32.43;28.43;40.43;;
67302;Laerm;57659;51.436;5.978;2023-04-19T00:12:34;32.61;28.59;40.45;;
67302;Laerm;57659;51.436;5.978;2023-04-19T00:12:44;32.62;28.34;40.75;;
67302;Laerm;57659;51.436;5.978;2023-04-19T00:12:54;32.43;28.39;40.00;;
67302;Laerm;57659;51.436;5.978;2023-04-19T00:13:05;32.13;28.49;40.23;;
67302;Laerm;57659;51.436;5.978;2023-04-19T00:13:16;32.32;28.58;40.49;;
67302;Laerm;57659;51.436;5.978;2023-04-19T00:13:26;32.91;28.37;41.18;;
67302;Laerm;57659;51.436;5.978;2023-04-19T00:13:36;32.59;28.30;40.48;;
67302;Laerm;57659;51.436;5.978;2023-04-19T00:13:46;32.56;28.37;40.54;;
67302;Laerm;57659;51.436;5.978;2023-04-19T00:13:58;32.80;28.61;41.20;;
67302;Laerm;57659;51.436;5.978;2023-04-19T00:14:08;33.18;28.51;41.25;;
67302;Laerm;57659;51.436;5.978;2023-04-19T00:14:19;32.93;28.51;40.92;;
67302;Laerm;57659;51.436;5.978;2023-04-19T00:14:29;32.65;28.67;40.54;;
67302;Laerm;57659;51.436;5.978;2023-04-19T00:14:39;32.73;28.03;40.81;;
67302;Laerm;57659;51.436;5.978;2023-04-19T00:14:49;32.85;28.39;40.74;;
67302;Laerm;57659;51.436;5.978;2023-04-19T00:15:00;32.73;28.30;40.53;;
67302;Laerm;57659;51.436;5.978;2023-04-19T00:15:10;32.57;28.53;40.26;;
67302;Laerm;57659;51.436;5.978;2023-04-19T00:15:21;32.36;28.26;40.61;;
67302;Laerm;57659;51.436;5.978;2023-04-19T00:15:31;32.45;28.46;40.34;;
67302;Laerm;57659;51.436;5.978;2023-04-19T00:15:41;32.75;28.59;40.71;;
67302;Laerm;57659;51.436;5.978;2023-04-19T00:15:52;32.50;28.63;40.16;;
67302;Laerm;57659;51.436;5.978;2023-04-19T00:16:02;32.21;28.31;40.05;;
67302;Laerm;57659;51.436;5.978;2023-04-19T00:16:12;32.53;28.37;40.67;;
67302;Laerm;57659;51.436;5.978;2023-04-19T00:16:22;32.37;28.36;40.87;;
67302;Laerm;57659;51.436;5.978;2023-04-19T00:16:33;32.37;28.58;40.34;;
67302;Laerm;57659;51.436;5.978;2023-04-19T00:16:43;32.13;28.30;39.72;;
67302;Laerm;57659;51.436;5.978;2023-04-19T00:16:53;32.41;28.48;40.29;;
67302;Laerm;57659;51.436;5.978;2023-04-19T00:17:03;32.39;28.52;40.28;;
67302;Laerm;57659;51.436;5.978;2023-04-19T00:17:14;32.60;28.53;40.42;;
67302;Laerm;57659;51.436;5.978;2023-04-19T00:17:24;32.44;28.56;40.82;;
67302;Laerm;57659;51.436;5.978;2023-04-19T00:17:34;32.78;28.33;40.93;;
67302;Laerm;57659;51.436;5.978;2023-04-19T00:17:45;32.73;28.40;40.78;;
67302;Laerm;57659;51.436;5.978;2023-04-19T00:17:55;32.68;28.50;40.78;;
67302;Laerm;57659;51.436;5.978;2023-04-19T00:18:06;32.65;28.60;40.93;;
67302;Laerm;57659;51.436;5.978;2023-04-19T00:18:16;32.81;28.28;41.22;;
67302;Laerm;57659;51.436;5.978;2023-04-19T00:18:26;32.78;28.37;40.65;;
67302;Laerm;57659;51.436;5.978;2023-04-19T00:18:37;32.77;28.07;40.97;;
67302;Laerm;57659;51.436;5.978;2023-04-19T00:18:47;32.78;28.36;41.36;;
67302;Laerm;57659;51.436;5.978;2023-04-19T00:18:58;32.75;28.44;41.29;;
67302;Laerm;57659;51.436;5.978;2023-04-19T00:19:08;32.58;28.46;40.98;;
67302;Laerm;57659;51.436;5.978;2023-04-19T00:19:19;32.42;28.35;40.90;;
67302;Laerm;57659;51.436;5.978;2023-04-19T00:19:30;32.84;28.38;42.09;;
67302;Laerm;57659;51.436;5.978;2023-04-19T00:19:41;32.93;28.49;41.45;;
67302;Laerm;57659;51.436;5.978;2023-04-19T00:19:52;32.85;28.42;41.18;;
67302;Laerm;57659;51.436;5.978;2023-04-19T00:20:02;32.66;27.97;41.48;;
67302;Laerm;57659;51.436;5.978;2023-04-19T00:20:13;32.92;28.46;41.48;;
67302;Laerm;57659;51.436;5.978;2023-04-19T00:20:23;33.04;28.38;41.74;;
67302;Laerm;57659;51.436;5.978;2023-04-19T00:20:33;32.95;28.35;41.52;;
67302;Laerm;57659;51.436;5.978;2023-04-19T00:20:44;32.46;28.31;40.96;;
67302;Laerm;57659;51.436;5.978;2023-04-19T00:20:54;32.67;28.45;41.90;;
67302;Laerm;57659;51.436;5.978;2023-04-19T00:21:05;32.95;28.57;41.70;;
67302;Laerm;57659;51.436;5.978;2023-04-19T00:21:15;32.71;28.46;41.61;;
67302;Laerm;57659;51.436;5.978;2023-04-19T00:21:26;32.52;28.51;41.77;;
67302;Laerm;57659;51.436;5.978;2023-04-19T00:21:36;32.49;28.53;41.32;;
67302;Laerm;57659;51.436;5.978;2023-04-19T00:21:46;32.49;28.44;41.55;;
67302;Laerm;57659;51.436;5.978;2023-04-19T00:21:57;32.60;28.49;41.35;;
67302;Laerm;57659;51.436;5.978;2023-04-19T00:22:07;32.44;28.27;41.37;;
67302;Laerm;57659;51.436;5.978;2023-04-19T00:22:17;32.68;28.43;41.49;;
67302;Laerm;57659;51.436;5.978;2023-04-19T00:22:28;32.59;28.38;41.57;;
67302;Laerm;57659;51.436;5.978;2023-04-19T00:22:38;32.68;28.63;41.47;;
67302;Laerm;57659;51.436;5.978;2023-04-19T00:22:48;32.30;28.25;41.08;;
67302;Laerm;57659;51.436;5.978;2023-04-19T00:22:59;32.69;28.54;41.50;;
67302;Laerm;57659;51.436;5.978;2023-04-19T00:23:09;32.59;28.54;41.42;;
67302;Laerm;57659;51.436;5.978;2023-04-19T00:23:19;32.62;28.57;41.28;;
67302;Laerm;57659;51.436;5.978;2023-04-19T00:23:30;32.45;28.31;41.05;;
67302;Laerm;57659;51.436;5.978;2023-04-19T00:23:40;32.89;28.50;41.54;;
67302;Laerm;57659;51.436;5.978;2023-04-19T00:23:50;32.57;28.23;41.35;;
67302;Laerm;57659;51.436;5.978;2023-04-19T00:24:01;32.71;28.43;41.49;;
67302;Laerm;57659;51.436;5.978;2023-04-19T00:24:11;32.52;28.30;40.60;;
67302;Laerm;57659;51.436;5.978;2023-04-19T00:24:22;32.65;28.46;41.17;;
67302;Laerm;57659;51.436;5.978;2023-04-19T00:24:32;32.49;28.28;41.29;;
67302;Laerm;57659;51.436;5.978;2023-04-19T00:24:42;32.53;28.38;40.77;;
67302;Laerm;57659;51.436;5.978;2023-04-19T00:24:52;32.46;28.38;40.73;;
67302;Laerm;57659;51.436;5.978;2023-04-19T00:25:03;32.64;28.50;40.80;;
67302;Laerm;57659;51.436;5.978;2023-04-19T00:25:13;32.34;28.47;40.24;;
67302;Laerm;57659;51.436;5.978;2023-04-19T00:25:23;32.00;28.50;40.11;;
67302;Laerm;57659;51.436;5.978;2023-04-19T00:25:34;32.13;28.33;39.84;;
67302;Laerm;57659;51.436;5.978;2023-04-19T00:25:45;32.79;28.45;41.31;;
67302;Laerm;57659;51.436;5.978;2023-04-19T00:25:55;32.52;28.57;40.62;;
67302;Laerm;57659;51.436;5.978;2023-04-19T00:26:05;32.28;28.62;40.49;;
67302;Laerm;57659;51.436;5.978;2023-04-19T00:26:16;32.26;28.32;40.34;;
67302;Laerm;57659;51.436;5.978;2023-04-19T00:26:26;32.70;28.20;40.83;;
67302;Laerm;57659;51.436;5.978;2023-04-19T00:26:36;32.68;28.32;40.60;;
67302;Laerm;57659;51.436;5.978;2023-04-19T00:26:46;32.36;28.37;40.62;;
67302;Laerm;57659;51.436;5.978;2023-04-19T00:26:57;32.12;28.38;40.33;;
67302;Laerm;57659;51.436;5.978;2023-04-19T00:27:08;32.54;28.27;40.21;;
67302;Laerm;57659;51.436;5.978;2023-04-19T00:27:18;32.59;28.49;40.82;;
67302;Laerm;57659;51.436;5.978;2023-04-19T00:27:28;32.41;28.16;40.01;;
67302;Laerm;57659;51.436;5.978;2023-04-19T00:27:39;32.25;28.48;40.43;;
67302;Laerm;57659;51.436;5.978;2023-04-19T00:27:49;32.37;28.60;40.45;;
67302;Laerm;57659;51.436;5.978;2023-04-19T00:27:59;32.54;28.50;40.73;;
67302;Laerm;57659;51.436;5.978;2023-04-19T00:28:10;32.27;28.35;40.19;;
67302;Laerm;57659;51.436;5.978;2023-04-19T00:28:20;32.23;28.34;40.67;;
67302;Laerm;57659;51.436;5.978;2023-04-19T00:28:30;32.39;28.45;40.26;;
67302;Laerm;57659;51.436;5.978;2023-04-19T00:28:40;32.42;28.39;40.35;;
67302;Laerm;57659;51.436;5.978;2023-04-19T00:28:51;32.38;28.05;40.65;;
67302;Laerm;57659;51.436;5.978;2023-04-19T00:29:01;32.13;28.44;40.53;;
67302;Laerm;57659;51.436;5.978;2023-04-19T00:29:12;32.32;28.30;40.30;;
67302;Laerm;57659;51.436;5.978;2023-04-19T00:29:22;32.41;28.44;40.46;;
67302;Laerm;57659;51.436;5.978;2023-04-19T00:29:32;32.58;28.33;40.74;;
67302;Laerm;57659;51.436;5.978;2023-04-19T00:29:43;32.51;28.20;42.10;;
67302;Laerm;57659;51.436;5.978;2023-04-19T00:29:53;32.67;28.30;41.10;;
67302;Laerm;57659;51.436;5.978;2023-04-19T00:30:03;32.61;28.44;40.86;;
67302;Laerm;57659;51.436;5.978;2023-04-19T00:30:14;32.70;28.51;41.17;;
67302;Laerm;57659;51.436;5.978;2023-04-19T00:30:24;32.58;28.54;41.33;;
67302;Laerm;57659;51.436;5.978;2023-04-19T00:30:35;32.57;28.24;41.04;;
67302;Laerm;57659;51.436;5.978;2023-04-19T00:30:45;32.90;28.62;41.34;;
67302;Laerm;57659;51.436;5.978;2023-04-19T00:30:55;32.19;28.54;40.21;;
67302;Laerm;57659;51.436;5.978;2023-04-19T00:31:05;32.21;28.78;40.87;;
67302;Laerm;57659;51.436;5.978;2023-04-19T00:31:16;32.07;28.45;40.47;;
67302;Laerm;57659;51.436;5.978;2023-04-19T00:31:26;32.07;28.44;40.38;;
67302;Laerm;57659;51.436;5.978;2023-04-19T00:31:36;31.82;28.64;39.82;;
67302;Laerm;57659;51.436;5.978;2023-04-19T00:31:48;32.07;28.25;41.26;;
67302;Laerm;57659;51.436;5.978;2023-04-19T00:31:59;32.31;28.52;41.13;;
67302;Laerm;57659;51.436;5.978;2023-04-19T00:32:09;32.03;28.29;40.97;;
67302;Laerm;57659;51.436;5.978;2023-04-19T00:32:20;31.96;28.53;40.71;;
67302;Laerm;57659;51.436;5.978;2023-04-19T00:32:30;32.22;28.38;41.05;;
67302;Laerm;57659;51.436;5.978;2023-04-19T00:32:40;32.46;28.26;41.48;;
67302;Laerm;57659;51.436;5.978;2023-04-19T00:32:50;32.23;28.32;41.04;;
67302;Laerm;57659;51.436;5.978;2023-04-19T00:33:01;31.87;28.67;39.92;;
67302;Laerm;57659;51.436;5.978;2023-04-19T00:33:11;32.04;28.39;40.73;;
67302;Laerm;57659;51.436;5.978;2023-04-19T00:33:21;32.29;27.87;41.25;;
67302;Laerm;57659;51.436;5.978;2023-04-19T00:33:32;32.28;28.31;40.46;;
67302;Laerm;57659;51.436;5.978;2023-04-19T00:33:42;32.54;28.69;40.06;;
67302;Laerm;57659;51.436;5.978;2023-04-19T00:33:52;32.47;28.96;40.32;;
67302;Laerm;57659;51.436;5.978;2023-04-19T00:34:02;32.74;28.56;40.86;;
67302;Laerm;57659;51.436;5.978;2023-04-19T00:34:13;32.75;28.90;41.10;;
67302;Laerm;57659;51.436;5.978;2023-04-19T00:34:23;39.24;29.29;50.80;;
67302;Laerm;57659;51.436;5.978;2023-04-19T00:34:33;47.38;40.17;51.56;;
67302;Laerm;57659;51.436;5.978;2023-04-19T00:34:44;41.94;29.71;49.41;;
67302;Laerm;57659;51.436;5.978;2023-04-19T00:34:54;44.53;29.58;60.84;;
67302;Laerm;57659;51.436;5.978;2023-04-19T00:35:04;32.50;28.65;40.50;;
67302;Laerm;57659;51.436;5.978;2023-04-19T00:35:15;32.49;28.70;40.77;;
67302;Laerm;57659;51.436;5.978;2023-04-19T00:35:25;32.68;28.48;41.68;;
67302;Laerm;57659;51.436;5.978;2023-04-19T00:35:36;32.63;28.60;41.66;;
67302;Laerm;57659;51.436;5.978;2023-04-19T00:35:46;32.75;28.29;41.09;;
67302;Laerm;57659;51.436;5.978;2023-04-19T00:35:56;32.77;28.61;41.50;;
67302;Laerm;57659;51.436;5.978;2023-04-19T00:36:06;32.73;28.56;41.48;;
67302;Laerm;57659;51.436;5.978;2023-04-19T00:36:17;32.62;28.42;41.04;;
67302;Laerm;57659;51.436;5.978;2023-04-19T00:36:27;32.31;28.39;40.52;;
67302;Laerm;57659;51.436;5.978;2023-04-19T00:36:37;32.47;28.77;40.42;;
67302;Laerm;57659;51.436;5.978;2023-04-19T00:36:48;41.68;29.33;49.56;;
67302;Laerm;57659;51.436;5.978;2023-04-19T00:36:58;43.35;38.31;47.35;;
67302;Laerm;57659;51.436;5.978;2023-04-19T00:37:08;41.66;30.98;47.19;;
67302;Laerm;57659;51.436;5.978;2023-04-19T00:37:20;32.49;28.82;40.37;;
67302;Laerm;57659;51.436;5.978;2023-04-19T00:37:30;32.19;28.57;39.52;;
67302;Laerm;57659;51.436;5.978;2023-04-19T00:37:40;31.73;28.56;39.00;;
67302;Laerm;57659;51.436;5.978;2023-04-19T00:37:50;31.80;28.56;38.89;;
67302;Laerm;57659;51.436;5.978;2023-04-19T00:38:01;32.03;28.41;40.00;;
67302;Laerm;57659;51.436;5.978;2023-04-19T00:38:11;32.05;28.59;39.20;;
67302;Laerm;57659;51.436;5.978;2023-04-19T00:38:21;31.88;28.49;39.11;;
67302;Laerm;57659;51.436;5.978;2023-04-19T00:38:32;32.00;28.38;39.78;;
67302;Laerm;57659;51.436;5.978;2023-04-19T00:38:42;42.24;29.21;50.08;;
67302;Laerm;57659;51.436;5.978;2023-04-19T00:38:52;44.47;38.83;49.15;;
67302;Laerm;57659;51.436;5.978;2023-04-19T00:39:02;38.39;29.65;45.79;;
67302;Laerm;57659;51.436;5.978;2023-04-19T00:39:13;32.02;28.89;38.60;;
67302;Laerm;57659;51.436;5.978;2023-04-19T00:39:24;31.97;28.43;39.76;;
67302;Laerm;57659;51.436;5.978;2023-04-19T00:39:35;31.95;28.57;39.20;;
67302;Laerm;57659;51.436;5.978;2023-04-19T00:39:45;31.82;28.60;39.07;;
67302;Laerm;57659;51.436;5.978;2023-04-19T00:39:55;31.51;28.49;38.88;;
67302;Laerm;57659;51.436;5.978;2023-04-19T00:40:06;31.49;28.56;38.57;;
67302;Laerm;57659;51.436;5.978;2023-04-19T00:40:16;31.57;28.44;38.84;;
67302;Laerm;57659;51.436;5.978;2023-04-19T00:40:26;31.66;28.38;38.77;;
67302;Laerm;57659;51.436;5.978;2023-04-19T00:40:37;31.54;28.49;39.53;;
67302;Laerm;57659;51.436;5.978;2023-04-19T00:40:47;31.74;28.45;38.98;;
67302;Laerm;57659;51.436;5.978;2023-04-19T00:40:57;31.83;28.52;39.00;;
67302;Laerm;57659;51.436;5.978;2023-04-19T00:41:08;31.82;28.51;39.05;;
67302;Laerm;57659;51.436;5.978;2023-04-19T00:41:18;31.59;28.51;38.89;;
67302;Laerm;57659;51.436;5.978;2023-04-19T00:41:28;31.86;28.35;39.39;;
67302;Laerm;57659;51.436;5.978;2023-04-19T00:41:39;31.98;28.31;39.68;;
67302;Laerm;57659;51.436;5.978;2023-04-19T00:41:49;31.92;28.52;39.47;;
67302;Laerm;57659;51.436;5.978;2023-04-19T00:41:59;31.96;28.79;40.18;;
67302;Laerm;57659;51.436;5.978;2023-04-19T00:42:10;32.06;28.70;39.35;;
67302;Laerm;57659;51.436;5.978;2023-04-19T00:42:20;31.86;28.60;39.17;;
67302;Laerm;57659;51.436;5.978;2023-04-19T00:42:30;32.03;28.44;39.13;;
67302;Laerm;57659;51.436;5.978;2023-04-19T00:42:41;31.90;28.58;39.38;;
67302;Laerm;57659;51.436;5.978;2023-04-19T00:42:51;32.12;28.34;39.56;;
67302;Laerm;57659;51.436;5.978;2023-04-19T00:43:01;39.40;29.86;44.37;;
67302;Laerm;57659;51.436;5.978;2023-04-19T00:43:15;40.02;36.18;43.76;;
67302;Laerm;57659;51.436;5.978;2023-04-19T00:43:26;38.42;28.68;44.02;;
67302;Laerm;57659;51.436;5.978;2023-04-19T00:43:36;31.94;28.74;38.99;;
67302;Laerm;57659;51.436;5.978;2023-04-19T00:43:46;31.76;28.64;39.28;;
67302;Laerm;57659;51.436;5.978;2023-04-19T00:43:56;31.58;28.62;39.06;;
67302;Laerm;57659;51.436;5.978;2023-04-19T00:44:07;31.87;28.47;39.69;;
67302;Laerm;57659;51.436;5.978;2023-04-19T00:44:17;32.06;28.51;39.86;;
67302;Laerm;57659;51.436;5.978;2023-04-19T00:44:27;37.72;28.88;45.98;;
67302;Laerm;57659;51.436;5.978;2023-04-19T00:44:38;43.50;38.21;48.20;;
67302;Laerm;57659;51.436;5.978;2023-04-19T00:44:48;40.15;30.05;47.04;;
67302;Laerm;57659;51.436;5.978;2023-04-19T00:44:58;32.51;28.73;39.74;;
67302;Laerm;57659;51.436;5.978;2023-04-19T00:45:10;32.08;28.50;39.52;;
67302;Laerm;57659;51.436;5.978;2023-04-19T00:45:20;31.70;28.49;39.09;;
67302;Laerm;57659;51.436;5.978;2023-04-19T00:45:31;31.82;28.62;39.71;;
67302;Laerm;57659;51.436;5.978;2023-04-19T00:45:42;31.95;28.31;39.51;;
67302;Laerm;57659;51.436;5.978;2023-04-19T00:45:52;31.92;28.52;39.43;;
67302;Laerm;57659;51.436;5.978;2023-04-19T00:46:02;31.80;28.56;39.41;;
67302;Laerm;57659;51.436;5.978;2023-04-19T00:46:13;31.76;28.49;39.74;;
67302;Laerm;57659;51.436;5.978;2023-04-19T00:46:24;31.94;28.51;39.69;;
67302;Laerm;57659;51.436;5.978;2023-04-19T00:46:35;31.97;28.48;39.49;;
67302;Laerm;57659;51.436;5.978;2023-04-19T00:46:46;31.72;28.45;38.99;;
67302;Laerm;57659;51.436;5.978;2023-04-19T00:46:57;32.07;28.36;39.78;;
67302;Laerm;57659;51.436;5.978;2023-04-19T00:47:08;32.19;28.31;40.47;;
67302;Laerm;57659;51.436;5.978;2023-04-19T00:47:19;32.14;28.31;40.64;;
67302;Laerm;57659;51.436;5.978;2023-04-19T00:47:29;32.04;28.55;39.70;;
67302;Laerm;57659;51.436;5.978;2023-04-19T00:47:40;32.20;28.52;40.46;;
67302;Laerm;57659;51.436;5.978;2023-04-19T00:47:50;33.73;28.76;41.07;;
67302;Laerm;57659;51.436;5.978;2023-04-19T00:48:01;32.43;28.48;41.01;;
67302;Laerm;57659;51.436;5.978;2023-04-19T00:48:12;32.11;28.40;40.70;;
67302;Laerm;57659;51.436;5.978;2023-04-19T00:48:22;39.20;28.80;49.30;;
67302;Laerm;57659;51.436;5.978;2023-04-19T00:48:33;40.54;37.05;45.22;;
67302;Laerm;57659;51.436;5.978;2023-04-19T00:48:45;34.12;28.84;41.63;;
67302;Laerm;57659;51.436;5.978;2023-04-19T00:48:55;32.27;28.51;40.99;;
67302;Laerm;57659;51.436;5.978;2023-04-19T00:49:06;32.94;28.50;40.48;;
67302;Laerm;57659;51.436;5.978;2023-04-19T00:49:16;46.79;31.51;53.94;;
67302;Laerm;57659;51.436;5.978;2023-04-19T00:49:27;46.85;39.18;52.46;;
67302;Laerm;57659;51.436;5.978;2023-04-19T00:49:38;43.14;30.64;49.74;;
67302;Laerm;57659;51.436;5.978;2023-04-19T00:49:49;32.92;29.25;40.40;;
67302;Laerm;57659;51.436;5.978;2023-04-19T00:49:59;32.07;28.91;40.20;;
67302;Laerm;57659;51.436;5.978;2023-04-19T00:50:10;31.99;28.52;40.26;;
67302;Laerm;57659;51.436;5.978;2023-04-19T00:50:21;32.35;28.52;40.79;;
67302;Laerm;57659;51.436;5.978;2023-04-19T00:50:31;32.29;28.42;40.63;;
67302;Laerm;57659;51.436;5.978;2023-04-19T00:50:45;32.05;28.61;39.80;;
67302;Laerm;57659;51.436;5.978;2023-04-19T00:50:55;31.98;28.31;40.75;;
67302;Laerm;57659;51.436;5.978;2023-04-19T00:51:06;32.40;28.36;40.84;;
67302;Laerm;57659;51.436;5.978;2023-04-19T00:51:16;32.39;28.50;40.43;;
67302;Laerm;57659;51.436;5.978;2023-04-19T00:51:27;31.95;28.25;39.52;;
67302;Laerm;57659;51.436;5.978;2023-04-19T00:51:37;31.92;28.38;39.79;;
67302;Laerm;57659;51.436;5.978;2023-04-19T00:51:47;31.96;28.51;40.03;;
67302;Laerm;57659;51.436;5.978;2023-04-19T00:51:58;31.79;28.33;39.69;;
67302;Laerm;57659;51.436;5.978;2023-04-19T00:52:08;31.68;28.25;38.71;;
67302;Laerm;57659;51.436;5.978;2023-04-19T00:52:19;31.40;28.41;38.97;;
67302;Laerm;57659;51.436;5.978;2023-04-19T00:52:31;31.74;28.39;39.57;;
67302;Laerm;57659;51.436;5.978;2023-04-19T00:52:41;31.81;28.57;39.57;;
67302;Laerm;57659;51.436;5.978;2023-04-19T00:52:53;31.75;28.51;39.13;;
67302;Laerm;57659;51.436;5.978;2023-04-19T00:53:04;31.94;28.18;39.82;;
67302;Laerm;57659;51.436;5.978;2023-04-19T00:53:15;32.04;28.59;40.15;;
67302;Laerm;57659;51.436;5.978;2023-04-19T00:53:25;32.12;28.30;40.65;;
67302;Laerm;57659;51.436;5.978;2023-04-19T00:53:36;31.78;28.48;39.54;;
67302;Laerm;57659;51.436;5.978;2023-04-19T00:53:47;31.92;28.60;39.93;;
67302;Laerm;57659;51.436;5.978;2023-04-19T00:53:57;32.00;28.36;39.91;;
67302;Laerm;57659;51.436;5.978;2023-04-19T00:54:07;32.17;28.58;40.53;;
67302;Laerm;57659;51.436;5.978;2023-04-19T00:54:19;31.97;28.57;39.91;;
67302;Laerm;57659;51.436;5.978;2023-04-19T00:54:29;32.24;28.50;40.77;;
67302;Laerm;57659;51.436;5.978;2023-04-19T00:54:40;32.22;28.56;40.13;;
67302;Laerm;57659;51.436;5.978;2023-04-19T00:54:52;36.59;28.23;48.59;;
67302;Laerm;57659;51.436;5.978;2023-04-19T00:55:03;43.23;36.66;49.00;;
67302;Laerm;57659;51.436;5.978;2023-04-19T00:55:13;42.07;37.72;45.83;;
67302;Laerm;57659;51.436;5.978;2023-04-19T00:55:24;38.12;29.06;47.20;;
67302;Laerm;57659;51.436;5.978;2023-04-19T00:55:34;32.28;28.83;39.73;;
67302;Laerm;57659;51.436;5.978;2023-04-19T00:55:45;31.96;28.45;39.94;;
67302;Laerm;57659;51.436;5.978;2023-04-19T00:55:55;31.93;28.55;39.53;;
67302;Laerm;57659;51.436;5.978;2023-04-19T00:56:06;31.67;28.53;39.46;;
67302;Laerm;57659;51.436;5.978;2023-04-19T00:56:17;31.65;28.45;39.27;;
67302;Laerm;57659;51.436;5.978;2023-04-19T00:56:28;32.01;28.40;40.23;;
67302;Laerm;57659;51.436;5.978;2023-04-19T00:56:39;32.09;28.47;39.86;;
67302;Laerm;57659;51.436;5.978;2023-04-19T00:56:50;31.81;28.51;39.37;;
67302;Laerm;57659;51.436;5.978;2023-04-19T00:57:01;31.80;28.42;39.68;;
67302;Laerm;57659;51.436;5.978;2023-04-19T00:57:11;32.07;28.43;40.16;;
67302;Laerm;57659;51.436;5.978;2023-04-19T00:57:22;32.04;28.43;39.85;;
67302;Laerm;57659;51.436;5.978;2023-04-19T00:57:33;31.96;28.44;39.91;;
67302;Laerm;57659;51.436;5.978;2023-04-19T00:57:44;31.78;28.67;40.70;;
67302;Laerm;57659;51.436;5.978;2023-04-19T00:57:54;32.05;28.28;40.10;;
67302;Laerm;57659;51.436;5.978;2023-04-19T00:58:06;32.36;28.57;42.05;;
67302;Laerm;57659;51.436;5.978;2023-04-19T00:58:16;31.71;28.33;39.02;;
67302;Laerm;57659;51.436;5.978;2023-04-19T00:58:27;31.48;28.35;38.96;;
67302;Laerm;57659;51.436;5.978;2023-04-19T00:58:39;31.68;28.71;39.22;;
67302;Laerm;57659;51.436;5.978;2023-04-19T00:58:49;31.75;28.58;39.39;;
67302;Laerm;57659;51.436;5.978;2023-04-19T00:59:00;31.69;28.50;39.01;;